| Record Date MM/DD/YYYY | Record Julian Date NNN day of the year | Air Temperature Max (Degrees Fahrenheit F) | Time Max Air Temperature HH:MM:SS This is the time of max air temperature standard time. | Air Temperature Min (Degrees Fahrenheit F) | Time Min Air Temperature HH:MM:SS This is the time of min air temperature standard time. | Air Temperature Observed (Degrees Fahrenheit F) This is an instantaneous reading for air temperature at 7:00:00 standard time. | Relative Humidity Max (Percent) | Time Max Relative Humidity HH:MM:SS This is the time of max relative humidity standard time. | Relative Humidity Min (Percent) | Time Min Relative Humidity HH:MM:SS This is the time of min relative humidity standard time. | Relative Humidity Observed (Percent) This is an instantaneous reading at 7:00:00 standard time. | Precipitation (Inches n.nn) total rain fall that occurred for the day. | Pan Evaporation (Inches n.nn) total evaporation that occured for the day. | Wind Run (Miles) Wind travel for the day. | Wind Speed (Miles Per Hour) Resultant / Average speed for the day. | Wind Direction (Degrees) Resultant Direction for the day | Solar Radiation (Langley's) that occurred for the day. | Soil Temperature Max at 2 inch depth (Degrees Fahrenheit F) that occurred during the day. | Time Max Soil temperature at 2 inches HH:MM:SS This is the time of max 2 inch soil temperature standard time. | Soil Temperature Min at 2 inch depth (Degrees Fahrenheit F) that occurred during the day. | Time Min Soil temperature at 2 inches HH:MM:SS This is the time of min 2 inch soil temperature standard time. | Soil Temperature Observed at 2 inch depth (Degrees Fahrenheit F) This is an instantaneous reading 2 inch soil temperature at 7:00:00 standard time. | Soil Temperature Max at 4 inch depth (Degrees Fahrenheit F) that occurred during the day. | Time Max Soil temperature at 4 inches HH:MM:SS This is the time of max 4 inch soil temperature standard time. | Soil Temperature Min at 4 inch depth (Degrees Fahrenheit F) that occurred during the day. | Time Min Soil temperature at 4 inches HH:MM:SS This is the time of min 4 inch soil temperature standard time. | Soil Temperature Observed at 4 inch depth (Degrees Fahrenheit F) This is an instantaneous reading 4 inch soil temperature at 7:00:00 standard time. | DD50 Degree Days 50 Fahrenheit. | Adjusted DD50 Degree Days 50 Fahrenheit adjusted for latitude. | DD60 Degree Days 60 Fahrenheit. |
|---|---|---|---|---|---|---|---|---|---|---|---|---|---|---|---|---|---|---|---|---|---|---|---|---|---|---|---|---|---|---|
| 08/07/2026 | 219 | 96 | 14:01:00 | 71 | 5:21:01 | 80 | 98 | 5:38:00 | 49 | 13:47:01 | 87 | 0 | 43 | 1.8 | 147 | 520 | 96 | 14:33:00 | 85 | 6:02:03 | 85 | 94 | 15:00:01 | 86 | 6:49:02 | 86 | 33.5 | 26.9 | 23.5 | |
| 08/08/2026 | 220 | 97 | 15:19:01 | 71 | 5:19:03 | 79 | 98 | 5:55:00 | 46 | 15:42:02 | 90 | 0.08 | 52 | 2.2 | 136 | 578 | 98 | 15:06:05 | 85 | 6:11:02 | 85 | 95 | 16:07:04 | 86 | 6:56:02 | 86 | 34 | 26.87 | 24 | |
| 08/09/2026 | 221 | 97 | 14:05:01 | 70 | 5:10:02 | 76 | 98 | 5:37:00 | 46 | 15:33:03 | 89 | 0.01 | 33 | 1.4 | 62 | 513 | 97 | 14:19:04 | 84 | 6:02:05 | 84 | 94 | 14:57:00 | 85 | 6:47:02 | 85 | 33.5 | 26.84 | 23.5 | |
| 08/10/2026 | 222 | 98 | 13:49:02 | 73 | 5:24:04 | 80 | 98 | 5:45:02 | 49 | 13:46:03 | 90 | 0.04 | 36 | 1.5 | 202 | 506 | 97 | 15:04:00 | 85 | 5:53:00 | 85 | 94 | 15:32:03 | 86 | 6:42:04 | 86 | 35.5 | 26.81 | 25.5 | |
| 08/11/2026 | 223 | 99 | 13:46:04 | 73 | 5:12:04 | 81 | 99 | 5:41:05 | 47 | 16:15:01 | 89 | 0 | 38 | 1.6 | 215 | 562 | 98 | 14:07:02 | 84 | 6:12:01 | 85 | 95 | 16:05:01 | 85 | 6:38:01 | 85 | 36 | 26.78 | 26 | |
| 08/12/2026 | 224 | 99 | 15:13:05 | 74 | 5:16:02 | 82 | 98 | 5:55:03 | 47 | 16:48:00 | 89 | 0 | 36 | 1.5 | 211 | 545 | 99 | 15:31:00 | 85 | 6:00:01 | 86 | 96 | 16:16:04 | 86 | 6:56:04 | 86 | 36.5 | 26.75 | 26.5 | |
| 08/13/2026 | 225 | 100 | 15:13:01 | 75 | 5:27:04 | 83 | 98 | 5:41:05 | 47 | 13:56:03 | 88 | 0 | 37 | 1.5 | 212 | 486 | 100 | 15:20:04 | 87 | 6:12:04 | 87 | 97 | 15:40:00 | 87 | 6:56:04 | 88 | 37.5 | 26.71 | 27.5 | |
| 08/14/2026 | 226 | 100 | 14:53:03 | 76 | 5:21:05 | 82 | 96 | 2:17:00 | 42 | 16:22:02 | 85 | 0 | 34 | 1.4 | 236 | 548 | 101 | 15:08:03 | 87 | 6:01:04 | 87 | 97 | 16:26:00 | 88 | 6:36:02 | 88 | 38 | 26.68 | 28 | |
| 08/15/2026 | 227 | 102 | 14:39:04 | 75 | 5:11:00 | 82 | 96 | 5:39:03 | 43 | 14:37:03 | 87 | 0 | 43 | 1.8 | 93 | 496 | 100 | 15:07:04 | 87 | 6:16:04 | 87 | 97 | 16:19:01 | 88 | 6:41:01 | 88 | 38.5 | 26.65 | 28.5 | |
| 08/16/2026 | 228 | 104 | 13:52:05 | 75 | 23:59:04 | 79 | 96 | 5:52:00 | 36 | 14:20:01 | 93 | 0 | 43 | 1.8 | 246 | 511 | 101 | 15:55:03 | 87 | 6:24:00 | 87 | 98 | 16:32:00 | 88 | 7:38:04 | 88 | 39.5 | 26.62 | 29.5 | |
| 08/17/2026 | 229 | 102 | 12:43:04 | 73 | 5:27:03 | 81 | 97 | 19:36:05 | 48 | 12:42:04 | 84 | 0.03 | 40 | 1.7 | 225 | 422 | 100 | 14:20:00 | 87 | 6:06:03 | 87 | 97 | 14:52:02 | 88 | 7:04:04 | 88 | 37.5 | 26.59 | 27.5 | |
| 08/18/2026 | 230 | 102 | 14:08:02 | 74 | 0:19:00 | 80 | 98 | 20:00:01 | 42 | 13:34:00 | 87 | 0.23 | 44 | 1.8 | 278 | 465 | 100 | 14:32:05 | 87 | 6:21:03 | 87 | 97 | 14:59:02 | 88 | 7:16:00 | 88 | 38 | 26.56 | 28 | |
| 08/19/2026 | 231 | 99 | 12:36:04 | 73 | 20:46:00 | 80 | 99 | 5:55:00 | 52 | 12:56:02 | 90 | 0.06 | 46 | 1.9 | 244 | 455 | 98 | 13:26:01 | 84 | 5:54:05 | 85 | 95 | 13:59:00 | 86 | 6:43:05 | 86 | 36 | 26.53 | 26 | |
| 08/20/2026 | 232 | 99 | 14:01:01 | 75 | 0:34:03 | 81 | 98 | 5:47:03 | 51 | 14:57:03 | 92 | 0 | 51 | 2.1 | 193 | 480 | 99 | 15:15:04 | 84 | 5:46:04 | 85 | 96 | 15:31:04 | 86 | 6:22:04 | 86 | 37 | 26.49 | 27 | |
| 08/21/2026 | 233 | 100 | 14:11:05 | 71 | 23:42:01 | 78 | 98 | 23:52:05 | 49 | 14:17:04 | 90 | 0.93 | 45 | 1.9 | 224 | 457 | 101 | 14:22:02 | 84 | 23:55:00 | 84 | 97 | 14:48:02 | 85 | 23:55:02 | 86 | 35.5 | 26.46 | 25.5 | |
| 08/22/2026 | 234 | 98 | 15:11:05 | 70 | 5:00:01 | 74 | 99 | 6:04:04 | 48 | 16:04:01 | 93 | 0.01 | 24 | 1.0 | 330 | 537 | 98 | 15:01:02 | 81 | 6:07:02 | 81 | 95 | 16:02:00 | 82 | 6:35:04 | 82 | 34 | 26.43 | 24 | |
| 08/23/2026 | 235 | 97 | 13:59:00 | 73 | 1:55:03 | 77 | 98 | 4:05:05 | 49 | 14:43:00 | 89 | 0 | 28 | 1.2 | 15 | 420 | 96 | 15:19:03 | 84 | 6:20:00 | 84 | 94 | 16:16:05 | 85 | 6:44:05 | 85 | 35 | 26.4 | 25 | |
| 08/24/2026 | 236 | 93 | 11:16:00 | 73 | 23:59:02 | 80 | 97 | 5:40:02 | 60 | 11:29:05 | 88 | 0 | 35 | 1.5 | 266 | 347 | 93 | 16:01:02 | 85 | 5:54:04 | 85 | 91 | 16:13:03 | 86 | 6:49:02 | 86 | 33 | 26.37 | 23 | |
| 08/25/2026 | 237 | 96 | 14:56:02 | 70 | 5:29:03 | 77 | 99 | 6:03:01 | 51 | 14:48:01 | 90 | 0 | 45 | 1.9 | 344 | 522 | 97 | 15:30:04 | 83 | 6:02:04 | 83 | 94 | 16:08:01 | 84 | 6:42:05 | 84 | 33 | 26.33 | 23 | |
| 08/26/2026 | 238 | 98 | 14:46:02 | 73 | 5:35:04 | 78 | 98 | 6:18:04 | 51 | 14:47:01 | 93 | 0.18 | 43 | 1.8 | 24 | 408 | 96 | 15:38:02 | 84 | 6:18:05 | 85 | 94 | 15:58:05 | 86 | 6:43:04 | 86 | 35.5 | 26.3 | 25.5 | |
| 08/27/2026 | 239 | 88 | 15:42:04 | 72 | 23:53:03 | 72 | 98 | 23:58:00 | 70 | 16:42:03 | 97 | 0.49 | 38 | 1.6 | 7 | 298 | 91 | 15:59:00 | 82 | 7:41:00 | 82 | 89 | 16:42:05 | 83 | 8:24:03 | 84 | 30 | 26.27 | 20 | |
| 08/28/2026 | 240 | 93 | 14:42:01 | 70 | 5:22:04 | 75 | 99 | 6:34:03 | 53 | 15:14:03 | 95 | 0 | 39 | 1.6 | 12 | 463 | 94 | 14:53:03 | 80 | 6:02:04 | 80 | 92 | 15:32:02 | 81 | 6:27:03 | 81 | 31.5 | 26.24 | 21.5 | |
| 08/29/2026 | 241 | 95 | 15:10:05 | 70 | 5:39:03 | 74 | 98 | 5:57:01 | 52 | 15:03:04 | 90 | 0 | 35 | 1.5 | 55 | 499 | 95 | 15:31:04 | 81 | 6:11:03 | 81 | 93 | 15:48:01 | 83 | 6:47:00 | 83 | 32.5 | 26.2 | 22.5 | |
| 08/30/2026 | 242 | 94 | 14:05:03 | 73 | 4:43:03 | 77 | 98 | 5:47:02 | 53 | 14:54:00 | 91 | 0 | 45 | 1.9 | 65 | 457 | 95 | 15:08:01 | 83 | 6:20:01 | 83 | 93 | 15:35:00 | 84 | 7:02:00 | 84 | 33.5 | 26.17 | 23.5 | |
| 08/31/2026 | 243 | 95 | 13:20:03 | 73 | 5:22:05 | 78 | 98 | 2:15:05 | 53 | 13:34:00 | 92 | 0 | 53 | 2.2 | 78 | 450 | 96 | 14:05:03 | 83 | 6:05:01 | 84 | 93 | 14:37:01 | 84 | 6:54:01 | 84 | 34 | 26.14 | 24 | |
| 09/01/2026 | 244 | 96 | 12:57:02 | 72 | 5:19:02 | 79 | 99 | 5:58:04 | 55 | 12:48:05 | 91 | 0.01 | 32 | 1.3 | 50 | 413 | 96 | 13:52:01 | 84 | 5:55:03 | 84 | 93 | 14:40:01 | 85 | 6:36:01 | 85 | 34 | 26.11 | 24 | |
| 09/02/2026 | 245 | 98 | 15:59:02 | 73 | 5:33:00 | 81 | 99 | 5:56:05 | 48 | 16:00:01 | 89 | 0 | 29 | 1.2 | 49 | 438 | 95 | 14:17:00 | 84 | 6:04:05 | 84 | 93 | 14:39:04 | 85 | 6:32:01 | 85 | 35.5 | 26.07 | 25.5 | |
| 09/03/2026 | 246 | 99 | 13:29:04 | 72 | 5:40:02 | 81 | 97 | 5:55:04 | 44 | 13:29:05 | 86 | 0 | 48 | 2.0 | 104 | 461 | 97 | 13:52:02 | 84 | 6:13:05 | 84 | 94 | 15:39:03 | 85 | 6:48:02 | 85 | 35.5 | 26.04 | 25.5 | |
| 09/04/2026 | 247 | 85 | 13:37:00 | 76 | 23:52:01 | 79 | 99 | 23:58:01 | 83 | 11:33:01 | 90 | 0.16 | 24 | 1.0 | 257 | 177 | 90 | 11:53:04 | 84 | 23:59:05 | 86 | 89 | 12:24:03 | 85 | 23:58:02 | 87 | 30.5 | 26.01 | 20.5 | |
| 09/05/2026 | 248 | 94 | 15:11:00 | 75 | 5:52:00 | 76 | 100 | 6:23:00 | 60 | 15:12:00 | 99 | 0 | 37 | 1.5 | 57 | 370 | 93 | 13:08:04 | 83 | 6:12:05 | 83 | 91 | 15:54:02 | 84 | 6:25:05 | 84 | 34.5 | 26 | 24.5 | |
| Average | 97.1 | 72.8 | 78.73 | 98.03 | 50.8 | 90.1 | 0.07 | 39.2 | 460.13 | 96.9 | 84.23 | 84.5 | 94.23 | 85.33 | 85.5 | 34.95 | 26.44 | 24.95 | ||||||||||||
| Total | 2.23 | 1048.5 | 793.32 | 748.5 |